sensor_id;sensor_type;location;lat;lon;timestamp;temperature;humidity
47174;DHT22;36730;49.036;9.094;2023-03-01T00:01:02;23.20;42.80
47174;DHT22;36730;49.036;9.094;2023-03-01T00:03:28;23.20;42.80
47174;DHT22;36730;49.036;9.094;2023-03-01T00:05:53;23.20;42.80
47174;DHT22;36730;49.036;9.094;2023-03-01T00:08:19;23.20;42.80
47174;DHT22;36730;49.036;9.094;2023-03-01T00:10:44;23.10;42.70
47174;DHT22;36730;49.036;9.094;2023-03-01T00:13:10;23.20;42.70
47174;DHT22;36730;49.036;9.094;2023-03-01T00:15:38;23.20;42.60
47174;DHT22;36730;49.036;9.094;2023-03-01T00:18:03;23.20;42.70
47174;DHT22;36730;49.036;9.094;2023-03-01T00:20:28;23.20;42.80
47174;DHT22;36730;49.036;9.094;2023-03-01T00:22:54;23.10;42.70
47174;DHT22;36730;49.036;9.094;2023-03-01T00:25:20;23.10;42.70
47174;DHT22;36730;49.036;9.094;2023-03-01T00:27:46;23.10;42.60
47174;DHT22;36730;49.036;9.094;2023-03-01T00:30:11;23.10;42.60
47174;DHT22;36730;49.036;9.094;2023-03-01T00:32:37;23.10;42.60
47174;DHT22;36730;49.036;9.094;2023-03-01T00:35:03;23.00;42.50
47174;DHT22;36730;49.036;9.094;2023-03-01T00:37:29;23.00;42.50
47174;DHT22;36730;49.036;9.094;2023-03-01T00:39:54;23.00;42.40
47174;DHT22;36730;49.036;9.094;2023-03-01T00:42:19;23.00;42.40
47174;DHT22;36730;49.036;9.094;2023-03-01T00:44:45;23.00;42.40
47174;DHT22;36730;49.036;9.094;2023-03-01T00:47:10;23.00;42.30
47174;DHT22;36730;49.036;9.094;2023-03-01T00:49:36;23.00;42.30
47174;DHT22;36730;49.036;9.094;2023-03-01T00:52:01;23.00;42.40
47174;DHT22;36730;49.036;9.094;2023-03-01T00:54:27;23.00;42.40
47174;DHT22;36730;49.036;9.094;2023-03-01T00:56:52;23.00;42.20
47174;DHT22;36730;49.036;9.094;2023-03-01T00:59:18;22.90;42.30
47174;DHT22;36730;49.036;9.094;2023-03-01T01:01:43;22.90;42.30
47174;DHT22;36730;49.036;9.094;2023-03-01T01:04:10;22.90;42.30
47174;DHT22;36730;49.036;9.094;2023-03-01T01:06:38;22.90;42.20
47174;DHT22;36730;49.036;9.094;2023-03-01T01:09:08;22.90;42.10
47174;DHT22;36730;49.036;9.094;2023-03-01T01:11:35;22.90;42.10
47174;DHT22;36730;49.036;9.094;2023-03-01T01:14:02;22.90;42.10
47174;DHT22;36730;49.036;9.094;2023-03-01T01:16:28;22.90;42.10
47174;DHT22;36730;49.036;9.094;2023-03-01T01:18:53;22.90;42.10
47174;DHT22;36730;49.036;9.094;2023-03-01T01:21:21;22.90;42.10
47174;DHT22;36730;49.036;9.094;2023-03-01T01:23:47;22.90;42.10
47174;DHT22;36730;49.036;9.094;2023-03-01T01:26:19;22.90;42.10
47174;DHT22;36730;49.036;9.094;2023-03-01T01:28:45;22.90;42.10
47174;DHT22;36730;49.036;9.094;2023-03-01T01:31:11;22.80;42.00
47174;DHT22;36730;49.036;9.094;2023-03-01T01:33:37;22.80;42.00
47174;DHT22;36730;49.036;9.094;2023-03-01T01:36:03;22.80;42.00
47174;DHT22;36730;49.036;9.094;2023-03-01T01:38:28;22.80;42.00
47174;DHT22;36730;49.036;9.094;2023-03-01T01:40:54;22.80;42.00
47174;DHT22;36730;49.036;9.094;2023-03-01T01:43:27;22.80;41.80
47174;DHT22;36730;49.036;9.094;2023-03-01T01:45:57;22.80;41.80
47174;DHT22;36730;49.036;9.094;2023-03-01T01:48:26;22.80;41.80
47174;DHT22;36730;49.036;9.094;2023-03-01T01:51:05;22.80;41.70
47174;DHT22;36730;49.036;9.094;2023-03-01T01:53:32;22.80;41.80
47174;DHT22;36730;49.036;9.094;2023-03-01T01:55:58;22.80;41.80
47174;DHT22;36730;49.036;9.094;2023-03-01T01:58:26;22.70;41.70
47174;DHT22;36730;49.036;9.094;2023-03-01T02:00:54;22.70;41.70
47174;DHT22;36730;49.036;9.094;2023-03-01T02:03:22;22.70;41.70
47174;DHT22;36730;49.036;9.094;2023-03-01T02:05:53;22.70;41.70
47174;DHT22;36730;49.036;9.094;2023-03-01T02:08:22;22.70;41.70
47174;DHT22;36730;49.036;9.094;2023-03-01T02:10:49;22.70;41.60
47174;DHT22;36730;49.036;9.094;2023-03-01T02:13:15;22.70;41.60
47174;DHT22;36730;49.036;9.094;2023-03-01T02:15:41;22.70;41.60
47174;DHT22;36730;49.036;9.094;2023-03-01T02:18:09;22.70;41.60
47174;DHT22;36730;49.036;9.094;2023-03-01T02:23:20;22.70;41.50
47174;DHT22;36730;49.036;9.094;2023-03-01T02:30:44;22.60;41.60
47174;DHT22;36730;49.036;9.094;2023-03-01T02:33:29;22.60;41.50
47174;DHT22;36730;49.036;9.094;2023-03-01T02:36:02;22.60;41.60
47174;DHT22;36730;49.036;9.094;2023-03-01T02:38:29;22.60;41.60
47174;DHT22;36730;49.036;9.094;2023-03-01T02:40:56;22.60;41.50
47174;DHT22;36730;49.036;9.094;2023-03-01T02:43:22;22.60;41.20
47174;DHT22;36730;49.036;9.094;2023-03-01T02:45:49;22.60;41.30
47174;DHT22;36730;49.036;9.094;2023-03-01T02:48:15;22.60;41.40
47174;DHT22;36730;49.036;9.094;2023-03-01T02:53:16;22.60;41.40
47174;DHT22;36730;49.036;9.094;2023-03-01T02:55:45;22.60;41.30
47174;DHT22;36730;49.036;9.094;2023-03-01T02:58:10;22.60;41.20
47174;DHT22;36730;49.036;9.094;2023-03-01T03:00:37;22.60;41.20
47174;DHT22;36730;49.036;9.094;2023-03-01T03:03:19;22.60;41.30
47174;DHT22;36730;49.036;9.094;2023-03-01T03:05:45;22.50;41.20
47174;DHT22;36730;49.036;9.094;2023-03-01T03:08:10;22.50;41.20
47174;DHT22;36730;49.036;9.094;2023-03-01T03:10:38;22.50;41.30
47174;DHT22;36730;49.036;9.094;2023-03-01T03:13:06;22.50;41.30
47174;DHT22;36730;49.036;9.094;2023-03-01T03:15:32;22.50;41.30
47174;DHT22;36730;49.036;9.094;2023-03-01T03:18:01;22.40;41.10
47174;DHT22;36730;49.036;9.094;2023-03-01T03:20:28;22.50;41.00
47174;DHT22;36730;49.036;9.094;2023-03-01T03:22:54;22.50;41.00
47174;DHT22;36730;49.036;9.094;2023-03-01T03:25:20;22.50;41.00
47174;DHT22;36730;49.036;9.094;2023-03-01T03:27:46;22.50;41.00
47174;DHT22;36730;49.036;9.094;2023-03-01T03:30:13;22.50;41.10
47174;DHT22;36730;49.036;9.094;2023-03-01T03:32:40;22.50;40.90
47174;DHT22;36730;49.036;9.094;2023-03-01T03:35:05;22.50;41.00
47174;DHT22;36730;49.036;9.094;2023-03-01T03:37:40;22.50;41.00
47174;DHT22;36730;49.036;9.094;2023-03-01T03:40:24;22.40;40.90
47174;DHT22;36730;49.036;9.094;2023-03-01T03:42:50;22.50;41.10
47174;DHT22;36730;49.036;9.094;2023-03-01T03:45:16;22.50;41.00
47174;DHT22;36730;49.036;9.094;2023-03-01T03:47:41;22.50;41.10
47174;DHT22;36730;49.036;9.094;2023-03-01T03:50:08;22.40;40.90
47174;DHT22;36730;49.036;9.094;2023-03-01T03:52:33;22.40;40.90
47174;DHT22;36730;49.036;9.094;2023-03-01T03:54:59;22.40;40.90
47174;DHT22;36730;49.036;9.094;2023-03-01T03:57:24;22.40;40.80
47174;DHT22;36730;49.036;9.094;2023-03-01T03:59:50;22.40;40.80
47174;DHT22;36730;49.036;9.094;2023-03-01T04:02:15;22.40;40.80
47174;DHT22;36730;49.036;9.094;2023-03-01T04:04:47;22.40;40.70
47174;DHT22;36730;49.036;9.094;2023-03-01T04:07:15;22.40;40.80
47174;DHT22;36730;49.036;9.094;2023-03-01T04:09:41;22.40;40.80
47174;DHT22;36730;49.036;9.094;2023-03-01T04:12:08;22.40;40.90
47174;DHT22;36730;49.036;9.094;2023-03-01T04:14:33;22.30;40.80
47174;DHT22;36730;49.036;9.094;2023-03-01T04:16:59;22.30;40.80
47174;DHT22;36730;49.036;9.094;2023-03-01T04:19:24;22.30;40.80
47174;DHT22;36730;49.036;9.094;2023-03-01T04:21:50;22.30;40.80
47174;DHT22;36730;49.036;9.094;2023-03-01T04:24:15;22.40;41.00
47174;DHT22;36730;49.036;9.094;2023-03-01T04:26:41;22.40;40.80
47174;DHT22;36730;49.036;9.094;2023-03-01T04:29:07;22.40;40.80
47174;DHT22;36730;49.036;9.094;2023-03-01T04:31:32;22.40;40.80
47174;DHT22;36730;49.036;9.094;2023-03-01T04:33:59;22.40;41.60
47174;DHT22;36730;49.036;9.094;2023-03-01T04:36:27;22.40;40.90
47174;DHT22;36730;49.036;9.094;2023-03-01T04:38:53;22.40;41.10
47174;DHT22;36730;49.036;9.094;2023-03-01T04:41:19;22.50;41.00
47174;DHT22;36730;49.036;9.094;2023-03-01T04:43:45;22.50;41.10
47174;DHT22;36730;49.036;9.094;2023-03-01T04:46:11;22.50;41.10
47174;DHT22;36730;49.036;9.094;2023-03-01T04:48:38;22.50;41.00
47174;DHT22;36730;49.036;9.094;2023-03-01T04:51:04;22.50;41.30
47174;DHT22;36730;49.036;9.094;2023-03-01T04:53:29;22.60;41.20
47174;DHT22;36730;49.036;9.094;2023-03-01T04:55:55;22.60;41.10
47174;DHT22;36730;49.036;9.094;2023-03-01T04:58:25;22.60;40.90
47174;DHT22;36730;49.036;9.094;2023-03-01T05:00:50;22.60;40.90
47174;DHT22;36730;49.036;9.094;2023-03-01T05:03:16;22.60;41.20
47174;DHT22;36730;49.036;9.094;2023-03-01T05:05:45;22.70;41.40
47174;DHT22;36730;49.036;9.094;2023-03-01T05:08:11;22.70;41.00
47174;DHT22;36730;49.036;9.094;2023-03-01T05:10:45;22.70;40.90
47174;DHT22;36730;49.036;9.094;2023-03-01T05:13:11;22.70;40.70
47174;DHT22;36730;49.036;9.094;2023-03-01T05:15:38;22.70;40.90
47174;DHT22;36730;49.036;9.094;2023-03-01T05:18:04;22.70;41.00
47174;DHT22;36730;49.036;9.094;2023-03-01T05:20:36;22.70;41.10
47174;DHT22;36730;49.036;9.094;2023-03-01T05:23:02;22.80;41.10
47174;DHT22;36730;49.036;9.094;2023-03-01T05:25:30;22.80;40.70
47174;DHT22;36730;49.036;9.094;2023-03-01T05:28:02;22.90;40.60
47174;DHT22;36730;49.036;9.094;2023-03-01T05:30:30;22.80;40.70
47174;DHT22;36730;49.036;9.094;2023-03-01T05:32:55;22.90;41.00
47174;DHT22;36730;49.036;9.094;2023-03-01T05:35:21;22.90;40.80
47174;DHT22;36730;49.036;9.094;2023-03-01T05:37:47;22.90;41.20
47174;DHT22;36730;49.036;9.094;2023-03-01T05:40:14;22.90;41.10
47174;DHT22;36730;49.036;9.094;2023-03-01T05:42:53;23.00;40.90
47174;DHT22;36730;49.036;9.094;2023-03-01T05:45:19;23.00;41.00
47174;DHT22;36730;49.036;9.094;2023-03-01T05:47:45;23.00;40.90
47174;DHT22;36730;49.036;9.094;2023-03-01T05:50:15;23.00;41.30
47174;DHT22;36730;49.036;9.094;2023-03-01T05:52:47;23.00;41.40
47174;DHT22;36730;49.036;9.094;2023-03-01T05:55:14;23.00;41.10
47174;DHT22;36730;49.036;9.094;2023-03-01T05:57:40;23.00;41.20
47174;DHT22;36730;49.036;9.094;2023-03-01T06:00:06;23.10;41.50
47174;DHT22;36730;49.036;9.094;2023-03-01T06:02:32;23.10;41.20
47174;DHT22;36730;49.036;9.094;2023-03-01T06:04:57;23.10;41.40
47174;DHT22;36730;49.036;9.094;2023-03-01T06:07:23;23.10;41.40
47174;DHT22;36730;49.036;9.094;2023-03-01T06:09:48;23.10;41.10
47174;DHT22;36730;49.036;9.094;2023-03-01T06:12:14;23.20;41.30
47174;DHT22;36730;49.036;9.094;2023-03-01T06:14:39;23.10;41.70
47174;DHT22;36730;49.036;9.094;2023-03-01T06:17:05;23.20;41.40
47174;DHT22;36730;49.036;9.094;2023-03-01T06:19:30;23.20;41.50
47174;DHT22;36730;49.036;9.094;2023-03-01T06:21:56;23.20;41.70
47174;DHT22;36730;49.036;9.094;2023-03-01T06:24:21;23.20;41.90
47174;DHT22;36730;49.036;9.094;2023-03-01T06:26:47;23.20;41.60
47174;DHT22;36730;49.036;9.094;2023-03-01T06:29:12;23.20;41.40
47174;DHT22;36730;49.036;9.094;2023-03-01T06:31:38;23.30;42.20
47174;DHT22;36730;49.036;9.094;2023-03-01T06:34:04;23.30;42.60
47174;DHT22;36730;49.036;9.094;2023-03-01T06:36:29;23.30;41.60
47174;DHT22;36730;49.036;9.094;2023-03-01T06:38:55;23.30;42.60
47174;DHT22;36730;49.036;9.094;2023-03-01T06:41:20;23.40;41.90
47174;DHT22;36730;49.036;9.094;2023-03-01T06:43:46;23.30;41.90
47174;DHT22;36730;49.036;9.094;2023-03-01T06:46:11;23.40;41.90
47174;DHT22;36730;49.036;9.094;2023-03-01T06:48:37;23.30;42.20
47174;DHT22;36730;49.036;9.094;2023-03-01T06:51:02;23.40;42.00
47174;DHT22;36730;49.036;9.094;2023-03-01T06:53:28;23.40;42.10
47174;DHT22;36730;49.036;9.094;2023-03-01T06:55:57;23.40;42.00
47174;DHT22;36730;49.036;9.094;2023-03-01T06:58:24;23.40;42.80
47174;DHT22;36730;49.036;9.094;2023-03-01T07:00:49;23.40;42.30
47174;DHT22;36730;49.036;9.094;2023-03-01T07:03:15;23.40;42.30
47174;DHT22;36730;49.036;9.094;2023-03-01T07:05:41;23.40;42.50
47174;DHT22;36730;49.036;9.094;2023-03-01T07:08:06;23.40;42.50
47174;DHT22;36730;49.036;9.094;2023-03-01T07:10:31;23.40;42.60
47174;DHT22;36730;49.036;9.094;2023-03-01T07:12:57;23.50;42.40
47174;DHT22;36730;49.036;9.094;2023-03-01T07:15:23;23.50;42.70
47174;DHT22;36730;49.036;9.094;2023-03-01T07:17:49;23.50;42.80
47174;DHT22;36730;49.036;9.094;2023-03-01T07:20:16;23.50;42.80
47174;DHT22;36730;49.036;9.094;2023-03-01T07:22:42;23.50;44.70
47174;DHT22;36730;49.036;9.094;2023-03-01T07:25:08;23.60;43.70
47174;DHT22;36730;49.036;9.094;2023-03-01T07:27:33;23.60;43.70
47174;DHT22;36730;49.036;9.094;2023-03-01T07:29:59;23.60;43.40
47174;DHT22;36730;49.036;9.094;2023-03-01T07:32:24;23.60;43.20
47174;DHT22;36730;49.036;9.094;2023-03-01T07:34:50;23.70;43.20
47174;DHT22;36730;49.036;9.094;2023-03-01T07:37:16;23.60;43.10
47174;DHT22;36730;49.036;9.094;2023-03-01T07:39:42;23.70;43.00
47174;DHT22;36730;49.036;9.094;2023-03-01T07:42:07;23.70;42.50
47174;DHT22;36730;49.036;9.094;2023-03-01T07:44:33;23.70;42.30
47174;DHT22;36730;49.036;9.094;2023-03-01T07:47:00;23.80;42.80
47174;DHT22;36730;49.036;9.094;2023-03-01T07:49:25;23.80;43.00
47174;DHT22;36730;49.036;9.094;2023-03-01T07:51:54;23.80;43.10
47174;DHT22;36730;49.036;9.094;2023-03-01T07:54:19;23.80;43.20
47174;DHT22;36730;49.036;9.094;2023-03-01T07:56:45;23.80;42.80
47174;DHT22;36730;49.036;9.094;2023-03-01T07:59:10;23.90;43.10
47174;DHT22;36730;49.036;9.094;2023-03-01T08:01:36;23.90;43.50
47174;DHT22;36730;49.036;9.094;2023-03-01T08:04:01;23.90;43.60
47174;DHT22;36730;49.036;9.094;2023-03-01T08:06:27;23.90;43.70
47174;DHT22;36730;49.036;9.094;2023-03-01T08:08:53;23.90;44.00
47174;DHT22;36730;49.036;9.094;2023-03-01T08:11:20;23.90;43.10
47174;DHT22;36730;49.036;9.094;2023-03-01T08:13:47;23.90;43.20
47174;DHT22;36730;49.036;9.094;2023-03-01T08:16:14;23.90;43.10
47174;DHT22;36730;49.036;9.094;2023-03-01T08:18:40;24.00;43.10
47174;DHT22;36730;49.036;9.094;2023-03-01T08:21:06;24.00;43.30
47174;DHT22;36730;49.036;9.094;2023-03-01T08:23:32;24.00;44.30
47174;DHT22;36730;49.036;9.094;2023-03-01T08:26:08;24.00;43.20
47174;DHT22;36730;49.036;9.094;2023-03-01T08:28:34;24.10;43.40
47174;DHT22;36730;49.036;9.094;2023-03-01T08:30:59;24.10;43.80
47174;DHT22;36730;49.036;9.094;2023-03-01T08:33:25;24.10;43.60
47174;DHT22;36730;49.036;9.094;2023-03-01T08:35:50;24.10;44.70
47174;DHT22;36730;49.036;9.094;2023-03-01T08:38:16;24.20;45.50
47174;DHT22;36730;49.036;9.094;2023-03-01T08:40:41;24.20;45.40
47174;DHT22;36730;49.036;9.094;2023-03-01T08:43:06;24.20;47.40
47174;DHT22;36730;49.036;9.094;2023-03-01T08:45:32;24.30;44.30
47174;DHT22;36730;49.036;9.094;2023-03-01T08:47:57;24.20;44.40
47174;DHT22;36730;49.036;9.094;2023-03-01T08:50:23;24.30;44.50
47174;DHT22;36730;49.036;9.094;2023-03-01T08:52:49;24.30;44.70
47174;DHT22;36730;49.036;9.094;2023-03-01T08:55:15;24.30;44.10
47174;DHT22;36730;49.036;9.094;2023-03-01T08:57:42;24.30;44.30
47174;DHT22;36730;49.036;9.094;2023-03-01T09:00:08;24.40;44.60
47174;DHT22;36730;49.036;9.094;2023-03-01T09:02:34;24.40;45.40
47174;DHT22;36730;49.036;9.094;2023-03-01T09:04:59;24.40;44.60
47174;DHT22;36730;49.036;9.094;2023-03-01T09:07:26;24.50;45.00
47174;DHT22;36730;49.036;9.094;2023-03-01T09:09:53;24.50;45.50
47174;DHT22;36730;49.036;9.094;2023-03-01T09:12:19;24.50;45.80
47174;DHT22;36730;49.036;9.094;2023-03-01T09:14:45;24.50;44.90
47174;DHT22;36730;49.036;9.094;2023-03-01T09:17:10;24.60;46.20
47174;DHT22;36730;49.036;9.094;2023-03-01T09:19:36;24.60;45.50
47174;DHT22;36730;49.036;9.094;2023-03-01T09:22:02;24.60;44.50
47174;DHT22;36730;49.036;9.094;2023-03-01T09:24:28;24.60;45.00
47174;DHT22;36730;49.036;9.094;2023-03-01T09:26:54;24.70;45.00
47174;DHT22;36730;49.036;9.094;2023-03-01T09:29:20;24.70;44.60
47174;DHT22;36730;49.036;9.094;2023-03-01T09:31:46;24.80;44.60
47174;DHT22;36730;49.036;9.094;2023-03-01T09:34:11;24.80;45.20
47174;DHT22;36730;49.036;9.094;2023-03-01T09:36:39;24.80;44.70
47174;DHT22;36730;49.036;9.094;2023-03-01T09:39:04;24.80;44.80
47174;DHT22;36730;49.036;9.094;2023-03-01T09:44:15;24.90;44.90
47174;DHT22;36730;49.036;9.094;2023-03-01T09:46:46;24.90;45.10
47174;DHT22;36730;49.036;9.094;2023-03-01T09:49:14;24.90;44.60
47174;DHT22;36730;49.036;9.094;2023-03-01T09:51:42;25.00;45.00
47174;DHT22;36730;49.036;9.094;2023-03-01T09:54:11;25.00;44.50
47174;DHT22;36730;49.036;9.094;2023-03-01T09:56:38;25.10;44.70
47174;DHT22;36730;49.036;9.094;2023-03-01T10:04:13;25.10;44.60
47174;DHT22;36730;49.036;9.094;2023-03-01T10:06:51;25.10;44.50
47174;DHT22;36730;49.036;9.094;2023-03-01T10:09:21;25.10;44.80
47174;DHT22;36730;49.036;9.094;2023-03-01T10:11:51;25.20;45.00
47174;DHT22;36730;49.036;9.094;2023-03-01T10:19:41;25.30;46.00
47174;DHT22;36730;49.036;9.094;2023-03-01T10:22:15;25.40;46.10
47174;DHT22;36730;49.036;9.094;2023-03-01T10:24:41;25.40;45.60
47174;DHT22;36730;49.036;9.094;2023-03-01T10:27:13;25.40;45.20
47174;DHT22;36730;49.036;9.094;2023-03-01T10:30:05;25.40;45.80
47174;DHT22;36730;49.036;9.094;2023-03-01T10:32:26;25.40;46.40
47174;DHT22;36730;49.036;9.094;2023-03-01T10:34:52;25.50;48.60
47174;DHT22;36730;49.036;9.094;2023-03-01T10:37:19;25.50;45.60
47174;DHT22;36730;49.036;9.094;2023-03-01T10:42:29;25.60;45.70
47174;DHT22;36730;49.036;9.094;2023-03-01T10:44:55;25.60;45.50
47174;DHT22;36730;49.036;9.094;2023-03-01T10:47:25;25.60;45.40
47174;DHT22;36730;49.036;9.094;2023-03-01T10:49:52;25.60;43.00
47174;DHT22;36730;49.036;9.094;2023-03-01T10:52:18;25.50;44.00
47174;DHT22;36730;49.036;9.094;2023-03-01T10:54:55;25.60;43.80
47174;DHT22;36730;49.036;9.094;2023-03-01T10:57:24;25.60;45.00
47174;DHT22;36730;49.036;9.094;2023-03-01T11:00:00;25.60;44.80
47174;DHT22;36730;49.036;9.094;2023-03-01T11:02:30;25.60;43.80
47174;DHT22;36730;49.036;9.094;2023-03-01T11:07:24;25.70;43.50
47174;DHT22;36730;49.036;9.094;2023-03-01T11:09:49;25.70;42.90
47174;DHT22;36730;49.036;9.094;2023-03-01T11:12:15;25.70;43.50
47174;DHT22;36730;49.036;9.094;2023-03-01T11:14:52;25.80;43.60
47174;DHT22;36730;49.036;9.094;2023-03-01T11:17:28;25.80;42.70
47174;DHT22;36730;49.036;9.094;2023-03-01T11:22:25;25.90;42.50
47174;DHT22;36730;49.036;9.094;2023-03-01T11:24:51;25.90;43.40
47174;DHT22;36730;49.036;9.094;2023-03-01T11:27:23;25.90;43.20
47174;DHT22;36730;49.036;9.094;2023-03-01T11:32:18;26.00;44.60
47174;DHT22;36730;49.036;9.094;2023-03-01T11:37:22;26.00;42.90
47174;DHT22;36730;49.036;9.094;2023-03-01T11:42:18;26.10;42.50
47174;DHT22;36730;49.036;9.094;2023-03-01T11:44:45;26.10;43.60
47174;DHT22;36730;49.036;9.094;2023-03-01T12:00:05;26.20;43.60
47174;DHT22;36730;49.036;9.094;2023-03-01T12:10:22;26.30;42.00
47174;DHT22;36730;49.036;9.094;2023-03-01T12:20:35;26.40;42.00
47174;DHT22;36730;49.036;9.094;2023-03-01T12:25:46;26.40;42.20
47174;DHT22;36730;49.036;9.094;2023-03-01T12:33:19;26.50;42.80
47174;DHT22;36730;49.036;9.094;2023-03-01T12:45:47;26.60;41.70
47174;DHT22;36730;49.036;9.094;2023-03-01T12:50:40;26.60;43.60
47174;DHT22;36730;49.036;9.094;2023-03-01T12:53:07;26.60;42.50
47174;DHT22;36730;49.036;9.094;2023-03-01T12:55:41;26.70;42.20
47174;DHT22;36730;49.036;9.094;2023-03-01T12:58:13;26.70;41.90
47174;DHT22;36730;49.036;9.094;2023-03-01T13:03:29;26.70;41.80
47174;DHT22;36730;49.036;9.094;2023-03-01T13:06:08;26.80;41.90
47174;DHT22;36730;49.036;9.094;2023-03-01T13:08:40;26.80;41.80
47174;DHT22;36730;49.036;9.094;2023-03-01T13:11:11;26.80;42.60
47174;DHT22;36730;49.036;9.094;2023-03-01T13:13:40;26.80;44.60
47174;DHT22;36730;49.036;9.094;2023-03-01T13:16:19;26.80;45.00
47174;DHT22;36730;49.036;9.094;2023-03-01T13:18:45;26.80;42.60
47174;DHT22;36730;49.036;9.094;2023-03-01T13:21:10;26.80;42.20
47174;DHT22;36730;49.036;9.094;2023-03-01T13:23:38;26.90;42.40
47174;DHT22;36730;49.036;9.094;2023-03-01T13:26:08;26.90;42.10
47174;DHT22;36730;49.036;9.094;2023-03-01T13:30:59;26.90;44.00
47174;DHT22;36730;49.036;9.094;2023-03-01T13:35:51;27.00;42.50
47174;DHT22;36730;49.036;9.094;2023-03-01T13:41:02;27.00;42.20
47174;DHT22;36730;49.036;9.094;2023-03-01T13:43:31;27.00;43.40
47174;DHT22;36730;49.036;9.094;2023-03-01T13:45:57;27.00;42.10
47174;DHT22;36730;49.036;9.094;2023-03-01T13:48:24;27.00;42.90
47174;DHT22;36730;49.036;9.094;2023-03-01T13:50:53;27.00;44.90
47174;DHT22;36730;49.036;9.094;2023-03-01T13:53:21;27.00;43.70
47174;DHT22;36730;49.036;9.094;2023-03-01T13:55:55;27.00;42.60
47174;DHT22;36730;49.036;9.094;2023-03-01T13:58:28;27.10;42.50
47174;DHT22;36730;49.036;9.094;2023-03-01T14:00:55;27.10;42.10
47174;DHT22;36730;49.036;9.094;2023-03-01T14:03:21;27.10;42.20
47174;DHT22;36730;49.036;9.094;2023-03-01T14:08:25;27.10;42.10
47174;DHT22;36730;49.036;9.094;2023-03-01T14:10:58;27.10;42.50
47174;DHT22;36730;49.036;9.094;2023-03-01T14:19:02;27.10;42.70
47174;DHT22;36730;49.036;9.094;2023-03-01T14:21:23;27.10;41.90
47174;DHT22;36730;49.036;9.094;2023-03-01T14:23:50;27.10;43.10
47174;DHT22;36730;49.036;9.094;2023-03-01T14:26:19;27.10;43.40
47174;DHT22;36730;49.036;9.094;2023-03-01T14:28:45;27.10;43.80
47174;DHT22;36730;49.036;9.094;2023-03-01T14:33:56;27.10;42.50
47174;DHT22;36730;49.036;9.094;2023-03-01T14:36:25;27.10;41.70
47174;DHT22;36730;49.036;9.094;2023-03-01T14:38:51;27.20;42.00
47174;DHT22;36730;49.036;9.094;2023-03-01T14:41:21;27.20;42.50
47174;DHT22;36730;49.036;9.094;2023-03-01T14:43:51;27.20;42.10
47174;DHT22;36730;49.036;9.094;2023-03-01T14:46:21;27.10;42.10
47174;DHT22;36730;49.036;9.094;2023-03-01T14:48:53;27.20;42.60
47174;DHT22;36730;49.036;9.094;2023-03-01T14:51:19;27.10;43.00
47174;DHT22;36730;49.036;9.094;2023-03-01T14:53:45;27.10;41.90
47174;DHT22;36730;49.036;9.094;2023-03-01T14:56:14;27.10;43.60
47174;DHT22;36730;49.036;9.094;2023-03-01T14:58:40;27.10;42.50
47174;DHT22;36730;49.036;9.094;2023-03-01T15:01:05;27.10;41.90
47174;DHT22;36730;49.036;9.094;2023-03-01T15:03:51;27.10;42.90
47174;DHT22;36730;49.036;9.094;2023-03-01T15:06:18;27.20;42.30
47174;DHT22;36730;49.036;9.094;2023-03-01T15:08:47;27.20;41.70
47174;DHT22;36730;49.036;9.094;2023-03-01T15:13:39;27.20;42.00
47174;DHT22;36730;49.036;9.094;2023-03-01T15:16:06;27.20;42.60
47174;DHT22;36730;49.036;9.094;2023-03-01T15:18:32;27.20;42.00
47174;DHT22;36730;49.036;9.094;2023-03-01T15:21:06;27.20;41.90
47174;DHT22;36730;49.036;9.094;2023-03-01T15:23:33;27.20;42.20
47174;DHT22;36730;49.036;9.094;2023-03-01T15:25:59;27.10;42.20
47174;DHT22;36730;49.036;9.094;2023-03-01T15:30:55;27.20;41.80
47174;DHT22;36730;49.036;9.094;2023-03-01T15:35:52;27.20;42.10
47174;DHT22;36730;49.036;9.094;2023-03-01T15:38:32;27.20;41.60
47174;DHT22;36730;49.036;9.094;2023-03-01T15:40:59;27.20;42.50
47174;DHT22;36730;49.036;9.094;2023-03-01T15:46:03;27.10;41.40
47174;DHT22;36730;49.036;9.094;2023-03-01T15:48:29;27.10;41.70
47174;DHT22;36730;49.036;9.094;2023-03-01T15:50:55;27.10;41.90
47174;DHT22;36730;49.036;9.094;2023-03-01T15:53:22;27.10;42.20
47174;DHT22;36730;49.036;9.094;2023-03-01T15:55:47;27.10;41.90
47174;DHT22;36730;49.036;9.094;2023-03-01T15:58:22;27.10;42.10
47174;DHT22;36730;49.036;9.094;2023-03-01T16:00:48;27.10;41.80
47174;DHT22;36730;49.036;9.094;2023-03-01T16:03:16;27.00;41.50
47174;DHT22;36730;49.036;9.094;2023-03-01T16:05:47;27.10;41.90
47174;DHT22;36730;49.036;9.094;2023-03-01T16:08:14;27.00;41.90
47174;DHT22;36730;49.036;9.094;2023-03-01T16:10:40;27.00;41.80
47174;DHT22;36730;49.036;9.094;2023-03-01T16:13:05;27.00;41.10
47174;DHT22;36730;49.036;9.094;2023-03-01T16:15:32;27.00;41.10
47174;DHT22;36730;49.036;9.094;2023-03-01T16:17:59;27.00;41.20
47174;DHT22;36730;49.036;9.094;2023-03-01T16:20:25;27.00;41.10
47174;DHT22;36730;49.036;9.094;2023-03-01T16:22:50;26.90;41.10
47174;DHT22;36730;49.036;9.094;2023-03-01T16:25:18;26.90;41.20
47174;DHT22;36730;49.036;9.094;2023-03-01T16:27:44;26.90;40.90
47174;DHT22;36730;49.036;9.094;2023-03-01T16:30:10;26.90;41.20
47174;DHT22;36730;49.036;9.094;2023-03-01T16:32:39;26.80;41.10
47174;DHT22;36730;49.036;9.094;2023-03-01T16:35:06;26.80;41.10
47174;DHT22;36730;49.036;9.094;2023-03-01T16:37:32;26.70;41.00
47174;DHT22;36730;49.036;9.094;2023-03-01T16:39:58;26.80;41.10
47174;DHT22;36730;49.036;9.094;2023-03-01T16:42:23;26.70;41.20
47174;DHT22;36730;49.036;9.094;2023-03-01T16:44:53;26.70;41.20
47174;DHT22;36730;49.036;9.094;2023-03-01T16:47:19;26.70;41.60
47174;DHT22;36730;49.036;9.094;2023-03-01T16:49:44;26.70;41.00
47174;DHT22;36730;49.036;9.094;2023-03-01T16:52:10;26.70;40.60
47174;DHT22;36730;49.036;9.094;2023-03-01T16:54:36;26.70;41.10
47174;DHT22;36730;49.036;9.094;2023-03-01T16:57:02;26.70;41.40
47174;DHT22;36730;49.036;9.094;2023-03-01T16:59:27;26.70;40.60
47174;DHT22;36730;49.036;9.094;2023-03-01T17:01:52;26.60;40.60
47174;DHT22;36730;49.036;9.094;2023-03-01T17:04:18;26.60;40.40
47174;DHT22;36730;49.036;9.094;2023-03-01T17:06:43;26.60;40.50
47174;DHT22;36730;49.036;9.094;2023-03-01T17:09:10;26.60;40.90
47174;DHT22;36730;49.036;9.094;2023-03-01T17:11:37;26.60;40.90
47174;DHT22;36730;49.036;9.094;2023-03-01T17:14:02;26.60;41.30
47174;DHT22;36730;49.036;9.094;2023-03-01T17:16:27;26.50;40.70
47174;DHT22;36730;49.036;9.094;2023-03-01T17:18:53;26.50;40.80
47174;DHT22;36730;49.036;9.094;2023-03-01T17:21:19;26.40;40.70
47174;DHT22;36730;49.036;9.094;2023-03-01T17:23:45;26.40;40.90
47174;DHT22;36730;49.036;9.094;2023-03-01T17:26:11;26.50;41.20
47174;DHT22;36730;49.036;9.094;2023-03-01T17:28:38;26.50;41.20